MCA123 LOWW-LOWI
Flight info
| Callsign | MCA123 |
|---|---|
| Flight time | N/A |
| Altitude | 24000 |
| Route | LOWW/16 SOVIL2B SOVIL NANIT NANIT2AXRTT LOWI/26 |
| Aircraft | A319/M-SDE3GILORW/C |
Departure
| Time | 2026-04-23 05:08 |
|---|---|
| Airport | Vienna International Airport (LOWW) |
Arrival
| Time | N/A |
|---|---|
| Airport | Innsbruck Airport (LOWI) |
| Time | Latitude | Longitude | Altitude | Speed | Heading |
|---|---|---|---|---|---|
| 2026-04-23 04:56 | 48.11826 | 16.56987 | 602 ft | 0 kts | 205° |
| 2026-04-23 05:03 | 48.11829 | 16.56989 | 602 ft | 2 kts | 202° |
| 2026-04-23 05:03 | 48.11849 | 16.56999 | 601 ft | 2 kts | 196° |
| 2026-04-23 05:03 | 48.11866 | 16.57005 | 600 ft | 2 kts | 191° |
| 2026-04-23 05:03 | 48.11885 | 16.57011 | 599 ft | 3 kts | 191° |
| 2026-04-23 05:04 | 48.11903 | 16.57016 | 598 ft | 3 kts | 191° |
| 2026-04-23 05:04 | 48.11915 | 16.57019 | 597 ft | 0 kts | 152° |
| 2026-04-23 05:04 | 48.11918 | 16.57015 | 597 ft | 0 kts | 115° |
| 2026-04-23 05:05 | 48.11915 | 16.57023 | 597 ft | 4 kts | 115° |
| 2026-04-23 05:05 | 48.11888 | 16.57107 | 597 ft | 10 kts | 116° |
| 2026-04-23 05:05 | 48.11854 | 16.57209 | 597 ft | 11 kts | 116° |
| 2026-04-23 05:06 | 48.11814 | 16.57332 | 596 ft | 14 kts | 116° |
| 2026-04-23 05:06 | 48.11823 | 16.57489 | 593 ft | 17 kts | 76° |
| 2026-04-23 05:06 | 48.11856 | 16.57674 | 592 ft | 18 kts | 87° |
| 2026-04-23 05:06 | 48.11820 | 16.57861 | 592 ft | 19 kts | 140° |
| 2026-04-23 05:07 | 48.11610 | 16.57971 | 592 ft | 59 kts | 164° |
| 2026-04-23 05:07 | 48.10976 | 16.58242 | 596 ft | 125 kts | 165° |
| 2026-04-23 05:07 | 48.10090 | 16.58618 | 725 ft | 156 kts | 167° |
| 2026-04-23 05:07 | 48.09131 | 16.59019 | 1123 ft | 168 kts | 167° |
| 2026-04-23 05:08 | 48.07942 | 16.59512 | 1631 ft | 185 kts | 167° |
| 2026-04-23 05:08 | 48.06657 | 16.59997 | 2194 ft | 199 kts | 177° |
| 2026-04-23 05:08 | 48.05303 | 16.59592 | 2768 ft | 206 kts | 218° |
| 2026-04-23 05:08 | 48.04293 | 16.57936 | 3308 ft | 221 kts | 238° |
| 2026-04-23 05:09 | 48.03390 | 16.55966 | 3815 ft | 243 kts | 238° |
| 2026-04-23 05:09 | 48.02362 | 16.53759 | 4334 ft | 265 kts | 237° |
| 2026-04-23 05:09 | 48.01249 | 16.51431 | 4840 ft | 287 kts | 237° |
| 2026-04-23 05:09 | 48.00016 | 16.48897 | 5353 ft | 308 kts | 236° |
| 2026-04-23 05:10 | 47.98792 | 16.46151 | 5850 ft | 327 kts | 245° |
| 2026-04-23 05:10 | 47.98053 | 16.42876 | 6350 ft | 342 kts | 262° |
| 2026-04-23 05:10 | 47.97961 | 16.39224 | 6860 ft | 353 kts | 274° |
| 2026-04-23 05:10 | 47.98111 | 16.35521 | 7367 ft | 356 kts | 275° |
| 2026-04-23 05:11 | 47.98287 | 16.31805 | 7872 ft | 359 kts | 274° |
| 2026-04-23 05:11 | 47.98455 | 16.28068 | 8376 ft | 362 kts | 274° |
| 2026-04-23 05:11 | 47.98613 | 16.24275 | 8883 ft | 364 kts | 274° |
| 2026-04-23 05:11 | 47.98763 | 16.20461 | 9389 ft | 367 kts | 274° |
| 2026-04-23 05:12 | 47.98909 | 16.16637 | 9893 ft | 370 kts | 274° |
| 2026-04-23 05:12 | 47.99075 | 16.12732 | 10403 ft | 372 kts | 275° |
| 2026-04-23 05:12 | 47.99344 | 16.08866 | 10907 ft | 375 kts | 277° |
| 2026-04-23 05:12 | 47.99639 | 16.04986 | 11410 ft | 378 kts | 277° |
| 2026-04-23 05:13 | 47.99941 | 16.01063 | 11914 ft | 381 kts | 277° |
| 2026-04-23 05:13 | 48.00246 | 15.97083 | 12424 ft | 383 kts | 277° |
| 2026-04-23 05:13 | 48.00552 | 15.93063 | 12937 ft | 384 kts | 277° |
| 2026-04-23 05:14 | 48.01155 | 15.85089 | 13952 ft | 385 kts | 277° |
| 2026-04-23 05:14 | 48.01457 | 15.81068 | 14462 ft | 386 kts | 277° |
| 2026-04-23 05:14 | 48.01755 | 15.77074 | 14968 ft | 387 kts | 277° |
| 2026-04-23 05:14 | 48.02052 | 15.73080 | 15473 ft | 388 kts | 277° |
| 2026-04-23 05:15 | 48.02352 | 15.69031 | 15983 ft | 389 kts | 278° |
| 2026-04-23 05:15 | 48.02649 | 15.65003 | 16489 ft | 390 kts | 278° |
| 2026-04-23 05:15 | 48.02948 | 15.60932 | 16998 ft | 392 kts | 278° |
| 2026-04-23 05:15 | 48.03247 | 15.56838 | 17509 ft | 393 kts | 278° |
| 2026-04-23 05:16 | 48.03543 | 15.52748 | 18019 ft | 393 kts | 278° |
| 2026-04-23 05:16 | 48.03837 | 15.48673 | 18526 ft | 394 kts | 278° |
| 2026-04-23 05:16 | 48.04132 | 15.44564 | 19035 ft | 395 kts | 278° |
| 2026-04-23 05:16 | 48.04255 | 15.40469 | 19540 ft | 398 kts | 272° |
| 2026-04-23 05:17 | 48.04050 | 15.36318 | 20049 ft | 402 kts | 266° |
| 2026-04-23 05:17 | 48.03510 | 15.32192 | 20558 ft | 408 kts | 260° |
| 2026-04-23 05:17 | 48.02734 | 15.28097 | 21065 ft | 411 kts | 258° |
| 2026-04-23 05:17 | 48.01905 | 15.23978 | 21572 ft | 413 kts | 258° |
| 2026-04-23 05:18 | 48.01065 | 15.19852 | 22080 ft | 414 kts | 258° |
| 2026-04-23 05:18 | 48.00225 | 15.15729 | 22585 ft | 415 kts | 259° |
| 2026-04-23 05:18 | 47.99376 | 15.11565 | 23095 ft | 415 kts | 259° |
| 2026-04-23 05:18 | 47.98537 | 15.07446 | 23599 ft | 415 kts | 259° |
| 2026-04-23 05:19 | 47.97699 | 15.03331 | 24060 ft | 416 kts | 259° |
| 2026-04-23 05:19 | 47.96857 | 14.99182 | 24259 ft | 423 kts | 259° |
| 2026-04-23 05:19 | 47.95986 | 14.94890 | 24269 ft | 428 kts | 259° |
| 2026-04-23 05:19 | 47.95131 | 14.90705 | 24277 ft | 428 kts | 259° |
| 2026-04-23 05:20 | 47.94262 | 14.86466 | 24283 ft | 428 kts | 259° |
| 2026-04-23 05:20 | 47.93382 | 14.82190 | 24287 ft | 428 kts | 259° |
| 2026-04-23 05:20 | 47.92492 | 14.77875 | 24291 ft | 428 kts | 259° |
| 2026-04-23 05:20 | 47.91613 | 14.73618 | 24294 ft | 428 kts | 259° |
| 2026-04-23 05:21 | 47.90729 | 14.69347 | 24297 ft | 428 kts | 259° |
| 2026-04-23 05:21 | 47.89851 | 14.65112 | 24299 ft | 428 kts | 259° |
| 2026-04-23 05:21 | 47.88958 | 14.60866 | 24304 ft | 429 kts | 259° |
| 2026-04-23 05:21 | 47.88061 | 14.56629 | 24308 ft | 428 kts | 259° |
| 2026-04-23 05:22 | 47.87170 | 14.52412 | 24310 ft | 428 kts | 259° |
| 2026-04-23 05:22 | 47.86278 | 14.48181 | 24311 ft | 428 kts | 259° |
| 2026-04-23 05:22 | 47.85374 | 14.43889 | 24313 ft | 429 kts | 259° |
| 2026-04-23 05:22 | 47.84481 | 14.39649 | 24313 ft | 428 kts | 259° |
| 2026-04-23 05:23 | 47.83595 | 14.35440 | 24313 ft | 429 kts | 259° |
| 2026-04-23 05:23 | 47.82702 | 14.31205 | 24314 ft | 429 kts | 258° |
| 2026-04-23 05:23 | 47.81797 | 14.26907 | 24313 ft | 429 kts | 258° |
| 2026-04-23 05:23 | 47.80902 | 14.22671 | 24312 ft | 429 kts | 258° |
| 2026-04-23 05:24 | 47.80002 | 14.18418 | 24312 ft | 429 kts | 258° |
| 2026-04-23 05:24 | 47.79094 | 14.14138 | 24312 ft | 429 kts | 258° |
| 2026-04-23 05:24 | 47.78192 | 14.09904 | 24313 ft | 429 kts | 258° |
| 2026-04-23 05:24 | 47.77295 | 14.05695 | 24313 ft | 429 kts | 258° |
| 2026-04-23 05:25 | 47.76378 | 14.01402 | 24314 ft | 429 kts | 258° |
| 2026-04-23 05:25 | 47.75478 | 13.97202 | 24314 ft | 429 kts | 258° |
| 2026-04-23 05:25 | 47.74555 | 13.92900 | 24314 ft | 429 kts | 258° |
| 2026-04-23 05:25 | 47.73645 | 13.88668 | 24314 ft | 429 kts | 258° |
| 2026-04-23 05:26 | 47.72729 | 13.84421 | 24314 ft | 429 kts | 258° |
| 2026-04-23 05:26 | 47.71822 | 13.80217 | 24316 ft | 429 kts | 258° |
| 2026-04-23 05:26 | 47.70904 | 13.75975 | 24319 ft | 429 kts | 258° |
| 2026-04-23 05:26 | 47.69986 | 13.71742 | 24322 ft | 429 kts | 258° |
| 2026-04-23 05:27 | 47.69069 | 13.67520 | 24326 ft | 429 kts | 258° |
| 2026-04-23 05:27 | 47.68146 | 13.63281 | 24330 ft | 429 kts | 258° |
| 2026-04-23 05:27 | 47.67216 | 13.59017 | 24334 ft | 429 kts | 258° |
| 2026-04-23 05:27 | 47.66285 | 13.54761 | 24336 ft | 429 kts | 258° |
| 2026-04-23 05:28 | 47.65368 | 13.50571 | 24338 ft | 429 kts | 258° |
| 2026-04-23 05:28 | 47.64440 | 13.46345 | 24339 ft | 429 kts | 258° |
| 2026-04-23 05:28 | 47.63524 | 13.42175 | 24340 ft | 429 kts | 258° |
| 2026-04-23 05:28 | 47.62597 | 13.37970 | 24340 ft | 429 kts | 258° |
| 2026-04-23 05:29 | 47.61664 | 13.33747 | 24341 ft | 429 kts | 258° |
| 2026-04-23 05:29 | 47.60735 | 13.29534 | 24340 ft | 429 kts | 258° |
| 2026-04-23 05:29 | 47.59812 | 13.25358 | 24340 ft | 429 kts | 258° |
| 2026-04-23 05:29 | 47.58879 | 13.21148 | 24340 ft | 429 kts | 258° |
| 2026-04-23 05:30 | 47.57944 | 13.16935 | 24341 ft | 429 kts | 257° |
| 2026-04-23 05:30 | 47.57021 | 13.12774 | 24342 ft | 425 kts | 257° |
| 2026-04-23 05:30 | 47.56099 | 13.08625 | 24342 ft | 422 kts | 256° |
| 2026-04-23 05:30 | 47.55188 | 13.04541 | 24341 ft | 419 kts | 256° |
| 2026-04-23 05:31 | 47.54275 | 13.00460 | 24341 ft | 417 kts | 255° |
| 2026-04-23 05:31 | 47.53371 | 12.96425 | 24341 ft | 415 kts | 255° |
| 2026-04-23 05:31 | 47.52456 | 12.92364 | 24340 ft | 414 kts | 255° |
| 2026-04-23 05:31 | 47.51541 | 12.88325 | 24336 ft | 414 kts | 255° |
| 2026-04-23 05:32 | 47.50635 | 12.84332 | 23905 ft | 405 kts | 254° |
| 2026-04-23 05:32 | 47.49757 | 12.80456 | 23406 ft | 394 kts | 254° |
| 2026-04-23 05:32 | 47.48903 | 12.76693 | 22905 ft | 385 kts | 254° |
| 2026-04-23 05:32 | 47.48069 | 12.73013 | 22408 ft | 377 kts | 253° |
| 2026-04-23 05:33 | 47.47236 | 12.69348 | 21902 ft | 370 kts | 253° |
| 2026-04-23 05:33 | 47.46433 | 12.65814 | 21402 ft | 363 kts | 253° |
| 2026-04-23 05:33 | 47.45634 | 12.62310 | 20901 ft | 357 kts | 253° |
| 2026-04-23 05:33 | 47.44848 | 12.58867 | 20400 ft | 352 kts | 253° |
| 2026-04-23 05:34 | 47.44078 | 12.55501 | 19901 ft | 347 kts | 252° |
| 2026-04-23 05:34 | 47.43308 | 12.52136 | 19397 ft | 343 kts | 252° |
| 2026-04-23 05:34 | 47.42552 | 12.48844 | 18898 ft | 338 kts | 252° |
| 2026-04-23 05:34 | 47.41793 | 12.45550 | 18392 ft | 335 kts | 252° |
| 2026-04-23 05:35 | 47.41053 | 12.42338 | 17892 ft | 331 kts | 251° |
| 2026-04-23 05:35 | 47.40315 | 12.39142 | 17391 ft | 328 kts | 251° |
| 2026-04-23 05:35 | 47.39739 | 12.35913 | 16888 ft | 326 kts | 260° |
| 2026-04-23 05:35 | 47.39577 | 12.33225 | 16483 ft | 326 kts | 267° |
| 2026-04-23 05:36 | 47.39732 | 12.29896 | 15982 ft | 325 kts | 274° |
| 2026-04-23 05:36 | 47.40033 | 12.26582 | 15478 ft | 324 kts | 275° |
| 2026-04-23 05:36 | 47.40347 | 12.23325 | 14979 ft | 322 kts | 275° |
| 2026-04-23 05:36 | 47.40661 | 12.20056 | 14476 ft | 321 kts | 275° |
| 2026-04-23 05:37 | 47.40969 | 12.16812 | 13975 ft | 319 kts | 275° |
| 2026-04-23 05:37 | 47.41273 | 12.13580 | 13474 ft | 318 kts | 275° |
| 2026-04-23 05:37 | 47.41573 | 12.10372 | 12974 ft | 317 kts | 275° |
| 2026-04-23 05:37 | 47.41871 | 12.07166 | 12474 ft | 316 kts | 275° |
| 2026-04-23 05:38 | 47.42168 | 12.03942 | 11968 ft | 315 kts | 275° |
| 2026-04-23 05:38 | 47.42462 | 12.00738 | 11466 ft | 314 kts | 275° |
| 2026-04-23 05:38 | 47.42742 | 11.97583 | 10968 ft | 312 kts | 272° |
| 2026-04-23 05:38 | 47.42503 | 11.94443 | 10438 ft | 307 kts | 247° |
| 2026-04-23 05:39 | 47.41267 | 11.91949 | 9940 ft | 306 kts | 220° |
| 2026-04-23 05:39 | 47.39455 | 11.90300 | 9526 ft | 303 kts | 209° |
| 2026-04-23 05:39 | 47.37614 | 11.88916 | 9404 ft | 290 kts | 209° |
| 2026-04-23 05:39 | 47.35892 | 11.87566 | 9396 ft | 273 kts | 211° |
| 2026-04-23 05:40 | 47.34280 | 11.86224 | 9386 ft | 251 kts | 214° |
| 2026-04-23 05:40 | 47.33161 | 11.84578 | 9349 ft | 209 kts | 245° |
| 2026-04-23 05:40 | 47.32732 | 11.82752 | 9387 ft | 172 kts | 254° |
| 2026-04-23 05:40 | 47.32457 | 11.81165 | 9358 ft | 149 kts | 255° |
| 2026-04-23 05:41 | 47.32238 | 11.79650 | 9392 ft | 152 kts | 258° |
| 2026-04-23 05:41 | 47.32061 | 11.78115 | 9136 ft | 156 kts | 259° |
| 2026-04-23 05:41 | 47.32015 | 11.76496 | 8572 ft | 161 kts | 266° |
| 2026-04-23 05:41 | 47.31821 | 11.74933 | 8180 ft | 153 kts | 256° |
| 2026-04-23 05:42 | 47.31549 | 11.73413 | 7759 ft | 151 kts | 252° |
| 2026-04-23 05:42 | 47.31232 | 11.71919 | 7245 ft | 154 kts | 255° |
| 2026-04-23 05:42 | 47.30950 | 11.70388 | 6800 ft | 152 kts | 255° |
| 2026-04-23 05:42 | 47.30702 | 11.68919 | 6458 ft | 149 kts | 257° |
| 2026-04-23 05:43 | 47.30469 | 11.67439 | 6227 ft | 149 kts | 258° |
| 2026-04-23 05:43 | 47.30212 | 11.65834 | 6200 ft | 165 kts | 257° |
| 2026-04-23 05:43 | 47.29924 | 11.64187 | 6310 ft | 165 kts | 255° |
| 2026-04-23 05:43 | 47.29705 | 11.63119 | 6408 ft | 165 kts | 253° |